Sinclair, WY

3:26 PM MDT on September 22, 2014 (GMT -0600)
MesoWest BENTN2 WY US UPR | Change Station
CLOSE
Current Station
Personal Weather Station
Location: Sinclair, WY
Elevation: 6549 ft
Nearby Weather Stations

Elev 6549 ft 41.78 °N, 107.05 °W | Updated 7 hours ago

Partly Cloudy
Partly Cloudy
66 °F
Feels Like 66 °F
N
15
Wind Variable Wind from WSW
Gusts 22 mph

Today
High -- | Low -- °F
--% Chance of Precip.
Yesterday
High -- | Low -- °F
Precip. -- in
6:55 AM 7:05 PM
Waning Crescent, 2% visible
Pressure 30.21 in
Visibility 10.0 miles
Clouds Few 9500 ft
Few 12000 ft
Dew Point 43 °F
Humidity 42%
Rainfall -999.00 in
Snow Depth 0 in , 0 in , 0 in
UV 5 out of 12
Pollen 5.20 out of 12
Air Quality Not available.
Flu Activity Not available.
SPECI KRWL 222109Z AUTO 24011KT 10SM VCTS FEW095 FEW120 16/10 A3021 RMK AO2 LTG DSNT SE-W T01610100

More Conditions Fewer Conditions

Pressure 30.21 in
Visibility 10.0 miles
Clouds Few 9500 ft
Few 12000 ft
Dew Point 43 °F
Humidity 42%
Rainfall -999.00 in
Snow Depth 0 in , 0 in , 0 in
UV 5 out of 12
Pollen 5.20 out of 12
Air Quality Not available.
Flu Activity Not available.
SPECI KRWL 222109Z AUTO 24011KT 10SM VCTS FEW095 FEW120 16/10 A3021 RMK AO2 LTG DSNT SE-W T01610100

More Conditions Fewer Conditions

10-Day Weather Forecast

Almanac

Astronomy

Sep. 22, 2014 Rise Set
Actual Time 6:55 AM MDT 7:05 PM MDT
Civil Twilight 6:27 AM MDT 7:33 PM MDT
Nautical Twilight 5:55 AM MDT 8:05 PM MDT
Astronomical Twilight 5:22 AM MDT 8:38 PM MDT
Moon 5:26 AM MDT 6:14 PM MDT
Length of Visible Light 13h 05m
Length of Day
12h 09m
Tomorrow will be 2m 48s shorter.
Waning Crescent, 2% of the Moon is Illuminated
Today
Waning Crescent
Sep 24
New
Oct 1
First Quarter
Oct 8
Full
Oct 15
Last Quarter

Today's Extremes

State Highs State Lows

Community

WunderPhotos

Upload Photos

1,755,536 photos uploaded!

Nearby

Snow Depth

Station Depth Elevation
Big Sandy Opening 0 in 9080 ft
Loomis Park 0 in 8240 ft
Big Goose 0 in 7990 ft
Crow Creek 0 in 8330 ft
North French Creek 0 in 10130 ft

Earthquake Activity

City Distance Mag. Time & Date
No recent earthquake activity has been reported nearby.
Minimum magnitude displayed is 2.5.

Coastal Water Temperatures

Place Temperature
No Stations Reporting

Nearby Weather Stations